createdAt,value
2018-06-18T00:01:41.956Z,14.80
2018-06-18T00:04:10.043Z,14.80
2018-06-18T00:06:37.536Z,14.80
2018-06-18T00:09:08.524Z,14.80
2018-06-18T00:11:36.045Z,14.80
2018-06-18T00:14:03.535Z,14.80
2018-06-18T00:16:31.136Z,14.80
2018-06-18T00:18:58.615Z,14.80
2018-06-18T00:21:26.091Z,14.70
2018-06-18T00:23:53.595Z,14.70
2018-06-18T00:26:21.069Z,14.70
2018-06-18T00:28:48.508Z,14.70
2018-06-18T00:31:16.004Z,14.70
2018-06-18T00:33:43.500Z,14.70
2018-06-18T00:36:10.965Z,14.70
2018-06-18T00:38:38.448Z,14.60
2018-06-18T00:41:06.556Z,14.70
2018-06-18T00:43:34.061Z,14.70
2018-06-18T00:46:01.525Z,14.70
2018-06-18T00:48:29.089Z,14.70
2018-06-18T00:50:56.619Z,14.70
2018-06-18T00:53:24.149Z,14.70
2018-06-18T00:56:03.004Z,14.60
2018-06-18T00:58:30.504Z,14.70
2018-06-18T01:00:57.974Z,14.70
2018-06-18T01:03:25.573Z,14.70
2018-06-18T01:05:53.068Z,14.70
2018-06-18T01:08:20.669Z,14.70
2018-06-18T01:10:48.207Z,14.70
2018-06-18T01:13:15.730Z,14.70
2018-06-18T01:15:43.261Z,14.70
2018-06-18T01:18:10.793Z,14.70
2018-06-18T01:20:38.289Z,14.70
2018-06-18T01:25:15.235Z,14.70
2018-06-18T01:27:42.671Z,14.60
2018-06-18T01:30:10.111Z,14.70
2018-06-18T01:32:37.562Z,14.70
2018-06-18T01:35:06.247Z,14.70
2018-06-18T01:37:33.784Z,14.70
2018-06-18T01:40:01.341Z,14.70
2018-06-18T01:42:28.772Z,14.70
2018-06-18T01:44:56.294Z,14.70
2018-06-18T01:47:23.839Z,14.70
2018-06-18T01:49:51.376Z,14.70
2018-06-18T01:52:18.806Z,14.70
2018-06-18T01:54:46.315Z,14.70
2018-06-18T01:57:13.908Z,14.70
2018-06-18T01:59:41.445Z,14.60
2018-06-18T02:02:08.915Z,14.70
2018-06-18T02:04:36.447Z,14.60
2018-06-18T02:07:03.934Z,14.60
2018-06-18T02:09:31.423Z,14.70
2018-06-18T02:11:58.884Z,14.70
2018-06-18T02:14:26.336Z,14.60
2018-06-18T02:16:53.987Z,14.60
2018-06-18T02:19:21.412Z,14.60
2018-06-18T02:21:48.847Z,14.60
2018-06-18T02:24:16.281Z,14.60
2018-06-18T02:26:43.837Z,14.60
2018-06-18T02:29:17.023Z,14.60
2018-06-18T02:31:50.224Z,14.60
2018-06-18T02:34:23.449Z,14.60
2018-06-18T02:36:56.451Z,14.60
2018-06-18T02:39:23.907Z,14.50
2018-06-18T02:41:51.386Z,14.50
2018-06-18T02:44:19.030Z,14.60
2018-06-18T02:46:47.144Z,14.60
2018-06-18T02:49:14.615Z,14.60
2018-06-18T02:51:42.111Z,14.50
2018-06-18T02:54:09.709Z,14.60
2018-06-18T02:56:46.563Z,14.60
2018-06-18T02:59:14.053Z,14.50
2018-06-18T03:01:41.543Z,14.40
2018-06-18T03:04:08.985Z,14.50
2018-06-18T03:06:36.573Z,14.50
2018-06-18T03:09:06.404Z,14.50
2018-06-18T03:11:33.881Z,14.50
2018-06-18T03:14:01.509Z,14.50
2018-06-18T03:16:28.991Z,14.50
2018-06-18T03:19:02.473Z,14.50
2018-06-18T03:21:35.680Z,14.50
2018-06-18T03:24:15.817Z,14.50
2018-06-18T03:26:48.853Z,14.40
2018-06-18T03:29:21.308Z,14.40
2018-06-18T03:31:49.432Z,14.50
2018-06-18T03:34:16.992Z,14.50
2018-06-18T03:36:45.048Z,14.50
2018-06-18T03:41:43.193Z,14.60
2018-06-18T03:44:14.319Z,14.50
2018-06-18T03:46:41.780Z,14.50
2018-06-18T03:49:09.236Z,14.60
2018-06-18T03:51:36.744Z,14.60
2018-06-18T03:54:04.187Z,14.60
2018-06-18T03:56:31.639Z,14.60
2018-06-18T03:58:59.104Z,14.70
2018-06-18T04:01:40.942Z,14.70
2018-06-18T04:04:14.130Z,14.60
2018-06-18T04:06:48.167Z,14.70
2018-06-18T04:09:21.321Z,14.70
2018-06-18T04:11:54.681Z,14.70
2018-06-18T04:14:22.346Z,14.70
2018-06-18T04:16:49.884Z,14.70
2018-06-18T04:19:17.499Z,14.70
2018-06-18T04:21:45.028Z,14.70
2018-06-18T04:24:12.459Z,14.70
2018-06-18T04:26:40.016Z,14.80
2018-06-18T04:29:07.516Z,14.70
2018-06-18T04:31:35.066Z,14.70
2018-06-18T04:35:06.576Z,14.80
2018-06-18T04:37:34.081Z,14.90
2018-06-18T04:40:01.629Z,14.90
2018-06-18T04:42:34.759Z,14.90
2018-06-18T04:45:07.978Z,15.00
2018-06-18T04:47:41.293Z,15.00
2018-06-18T04:50:14.611Z,15.00
2018-06-18T04:52:42.531Z,15.10
2018-06-18T04:55:10.012Z,15.10
2018-06-18T04:57:37.495Z,15.10
2018-06-18T05:00:25.387Z,15.10
2018-06-18T05:02:52.936Z,15.20
2018-06-18T05:05:20.415Z,15.20
2018-06-18T05:07:51.419Z,15.30
2018-06-18T05:10:24.660Z,15.30
2018-06-18T05:12:52.582Z,15.30
2018-06-18T05:15:22.657Z,15.40
2018-06-18T05:17:50.185Z,15.40
2018-06-18T05:20:17.712Z,15.40
2018-06-18T05:22:45.639Z,15.40
2018-06-18T05:25:13.112Z,15.50
2018-06-18T05:27:40.541Z,15.50
2018-06-18T05:30:12.713Z,15.60
2018-06-18T05:32:40.276Z,15.70
2018-06-18T05:35:09.132Z,15.70
2018-06-18T05:37:46.928Z,15.80
2018-06-18T05:40:14.393Z,15.80
2018-06-18T05:42:42.206Z,15.90
2018-06-18T05:45:09.751Z,15.90
2018-06-18T05:47:37.295Z,15.90
2018-06-18T05:50:04.813Z,15.90
2018-06-18T05:52:32.564Z,15.80
2018-06-18T05:55:00.444Z,15.90
2018-06-18T05:57:28.134Z,15.90
2018-06-18T05:59:55.605Z,15.90
2018-06-18T06:02:23.601Z,15.90
2018-06-18T06:04:51.086Z,15.90
2018-06-18T06:07:18.626Z,15.90
2018-06-18T06:09:46.157Z,15.90
2018-06-18T06:12:14.765Z,16.00
2018-06-18T06:14:42.239Z,16.00
2018-06-18T06:17:10.284Z,16.00
2018-06-18T06:19:37.859Z,16.00
2018-06-18T06:22:05.393Z,16.10
2018-06-18T06:24:32.823Z,16.20
2018-06-18T06:27:00.389Z,16.30
2018-06-18T06:29:27.898Z,16.40
2018-06-18T06:31:55.357Z,16.50
2018-06-18T06:34:22.812Z,16.60
2018-06-18T06:36:50.268Z,16.60
2018-06-18T06:39:17.947Z,16.50
2018-06-18T06:41:49.463Z,16.60
2018-06-18T06:44:16.948Z,16.80
2018-06-18T06:46:44.621Z,16.70
2018-06-18T06:49:12.176Z,16.70
2018-06-18T06:51:39.623Z,16.80
2018-06-18T06:54:07.188Z,16.80
2018-06-18T06:56:34.665Z,16.80
2018-06-18T06:59:02.127Z,16.70
2018-06-18T07:01:29.931Z,16.70
2018-06-18T07:03:57.374Z,16.60
2018-06-18T07:06:24.832Z,16.70
2018-06-18T07:08:52.339Z,16.80
2018-06-18T07:11:19.790Z,16.70
2018-06-18T07:13:47.368Z,16.80
2018-06-18T07:16:14.847Z,16.80
2018-06-18T07:18:42.376Z,16.90
2018-06-18T07:21:10.446Z,16.90
2018-06-18T07:23:38.030Z,16.90
2018-06-18T07:26:05.836Z,16.90
2018-06-18T07:28:33.342Z,16.90
2018-06-18T07:31:01.000Z,16.90
2018-06-18T07:33:28.449Z,17.00
2018-06-18T07:35:55.944Z,17.10
2018-06-18T07:38:23.434Z,17.20
2018-06-18T07:40:51.459Z,17.30
2018-06-18T07:43:19.179Z,17.30
2018-06-18T07:45:47.900Z,17.10
2018-06-18T07:48:16.250Z,17.10
2018-06-18T07:50:44.308Z,17.10
2018-06-18T07:53:11.775Z,17.10
2018-06-18T07:55:41.061Z,17.30
2018-06-18T07:58:08.639Z,17.30
2018-06-18T08:00:36.217Z,17.40
2018-06-18T08:03:03.976Z,17.40
2018-06-18T08:05:31.442Z,17.40
2018-06-18T08:08:00.049Z,17.30
2018-06-18T08:10:27.536Z,17.40
2018-06-18T08:12:55.624Z,17.50
2018-06-18T08:15:23.257Z,17.70
2018-06-18T08:17:50.821Z,17.60
2018-06-18T08:20:18.906Z,17.60
2018-06-18T08:22:46.480Z,17.60
2018-06-18T08:25:14.069Z,17.50
2018-06-18T08:27:41.648Z,17.40
2018-06-18T08:30:09.191Z,17.40
2018-06-18T08:32:36.714Z,17.30
2018-06-18T08:35:04.461Z,17.30
2018-06-18T08:37:31.952Z,17.30
2018-06-18T08:39:59.400Z,17.30
2018-06-18T08:42:26.862Z,17.30
2018-06-18T08:44:54.513Z,17.40
2018-06-18T08:47:22.052Z,17.10
2018-06-18T08:49:55.345Z,17.10
2018-06-18T08:52:28.356Z,17.00
2018-06-18T08:55:02.020Z,16.90
2018-06-18T08:57:35.249Z,17.00
2018-06-18T09:00:08.780Z,17.10
2018-06-18T09:02:36.299Z,17.30
2018-06-18T09:05:09.837Z,17.30
2018-06-18T09:07:43.016Z,17.30
2018-06-18T09:10:10.581Z,17.20
2018-06-18T09:12:38.067Z,17.20
2018-06-18T09:15:05.828Z,17.30
2018-06-18T09:17:33.564Z,17.20
2018-06-18T09:20:01.073Z,17.10
2018-06-18T09:22:28.533Z,17.10
2018-06-18T09:24:56.064Z,17.10
2018-06-18T09:27:23.597Z,17.20
2018-06-18T09:29:56.995Z,17.30
2018-06-18T09:32:24.697Z,17.40
2018-06-18T09:34:51.960Z,17.40
2018-06-18T09:37:19.583Z,17.40
2018-06-18T09:39:47.031Z,17.50
2018-06-18T09:42:14.483Z,17.50
2018-06-18T09:44:41.948Z,17.50
2018-06-18T09:47:09.603Z,17.50
2018-06-18T09:49:42.689Z,17.40
2018-06-18T09:52:15.899Z,17.40
2018-06-18T09:54:49.197Z,17.50
2018-06-18T09:57:25.191Z,17.50
2018-06-18T10:00:00.811Z,17.60
2018-06-18T10:02:28.696Z,17.50
2018-06-18T10:04:57.494Z,17.50
2018-06-18T10:07:25.176Z,17.60
2018-06-18T10:09:52.787Z,17.60
2018-06-18T10:12:20.687Z,17.60
2018-06-18T10:14:48.160Z,17.80
2018-06-18T10:17:15.947Z,17.80
2018-06-18T10:19:43.443Z,17.80
2018-06-18T10:22:10.915Z,18.00
2018-06-18T10:24:38.381Z,18.00
2018-06-18T10:27:05.939Z,18.00
2018-06-18T10:29:33.424Z,18.20
2018-06-18T10:32:00.987Z,18.20
2018-06-18T10:34:34.301Z,18.20
2018-06-18T10:37:07.600Z,18.30
2018-06-18T10:39:40.875Z,18.30
2018-06-18T10:42:14.034Z,18.30
2018-06-18T10:44:41.510Z,18.30
2018-06-18T10:47:08.961Z,18.30
2018-06-18T10:49:36.540Z,18.30
2018-06-18T10:52:04.013Z,18.20
2018-06-18T10:54:31.724Z,18.30
2018-06-18T10:56:59.285Z,18.30
2018-06-18T10:59:26.711Z,18.60
2018-06-18T11:01:54.211Z,18.90
2018-06-18T11:04:27.344Z,19.00
2018-06-18T11:06:54.843Z,19.30
2018-06-18T11:09:22.355Z,19.50
2018-06-18T11:11:51.607Z,19.60
2018-06-18T11:14:19.074Z,19.60
2018-06-18T11:16:53.466Z,19.70
2018-06-18T11:19:26.585Z,19.70
2018-06-18T11:21:59.615Z,19.70
2018-06-18T11:24:32.936Z,19.60
2018-06-18T11:27:00.488Z,19.40
2018-06-18T11:31:55.835Z,19.40
2018-06-18T11:34:23.835Z,19.50
2018-06-18T11:36:51.395Z,19.60
2018-06-18T11:39:18.906Z,19.80
2018-06-18T11:41:46.426Z,19.90
2018-06-18T11:44:14.068Z,20.20
2018-06-18T11:46:41.528Z,20.30
2018-06-18T11:49:09.073Z,20.40
2018-06-18T11:51:36.522Z,20.30
2018-06-18T11:54:04.193Z,20.30
2018-06-18T11:56:32.113Z,20.30
2018-06-18T11:59:05.368Z,20.40
2018-06-18T12:01:38.401Z,20.60
2018-06-18T12:04:11.644Z,20.80
2018-06-18T12:06:45.371Z,20.90
2018-06-18T12:09:18.530Z,21.10
2018-06-18T12:11:46.601Z,21.20
2018-06-18T12:14:14.588Z,21.20
2018-06-18T12:16:42.224Z,21.20
2018-06-18T12:19:09.657Z,21.10
2018-06-18T12:21:37.137Z,20.90
2018-06-18T12:24:04.729Z,20.80
2018-06-18T12:26:32.514Z,20.90
2018-06-18T12:28:59.971Z,21.00
2018-06-18T12:31:27.632Z,21.00
2018-06-18T12:33:55.153Z,20.90
2018-06-18T12:36:22.697Z,20.90
2018-06-18T12:38:50.411Z,21.00
2018-06-18T12:41:18.707Z,20.90
2018-06-18T12:43:49.898Z,20.70
2018-06-18T12:46:23.102Z,20.90
2018-06-18T12:48:56.331Z,21.10
2018-06-18T12:51:29.520Z,21.50
2018-06-18T12:54:02.728Z,21.60
2018-06-18T12:56:36.381Z,21.60
2018-06-18T12:59:03.923Z,21.70
2018-06-18T13:01:33.967Z,21.80
2018-06-18T13:04:03.003Z,21.60
2018-06-18T13:06:30.479Z,21.50
2018-06-18T13:08:58.073Z,21.40
2018-06-18T13:11:25.564Z,21.50
2018-06-18T13:13:53.090Z,21.70
2018-06-18T13:16:20.557Z,21.70
2018-06-18T13:18:48.043Z,21.70
2018-06-18T13:21:15.572Z,21.60
2018-06-18T13:23:43.079Z,21.60
2018-06-18T13:26:10.578Z,21.80
2018-06-18T13:28:38.043Z,21.70
2018-06-18T13:31:05.568Z,21.80
2018-06-18T13:33:33.010Z,21.80
2018-06-18T13:36:00.466Z,21.60
2018-06-18T13:38:33.640Z,21.60
2018-06-18T13:41:06.873Z,21.60
2018-06-18T13:43:40.091Z,21.40
2018-06-18T13:46:13.308Z,21.40
2018-06-18T13:48:48.479Z,21.60
2018-06-18T13:51:16.145Z,21.60
2018-06-18T13:53:43.605Z,21.50
2018-06-18T13:56:11.070Z,21.40
2018-06-18T13:58:38.593Z,21.40
2018-06-18T14:01:07.263Z,21.40
2018-06-18T14:03:34.814Z,21.40
2018-06-18T14:06:02.300Z,21.50
2018-06-18T14:08:29.780Z,21.60
2018-06-18T14:10:57.260Z,21.60
2018-06-18T14:13:24.876Z,21.70
2018-06-18T14:15:52.430Z,21.60
2018-06-18T14:18:19.940Z,21.60
2018-06-18T14:20:47.468Z,21.50
2018-06-18T14:23:14.948Z,21.50
2018-06-18T14:25:42.392Z,21.30
2018-06-18T14:28:09.880Z,21.40
2018-06-18T14:30:43.058Z,21.50
2018-06-18T14:33:16.206Z,21.60
2018-06-18T14:35:49.483Z,21.80
2018-06-18T14:38:22.773Z,21.80
2018-06-18T14:40:50.322Z,21.80
2018-06-18T14:43:17.984Z,21.90
2018-06-18T14:45:45.783Z,21.90
2018-06-18T14:48:13.191Z,21.70
2018-06-18T14:50:41.119Z,21.70
2018-06-18T14:53:08.617Z,21.70
2018-06-18T14:55:36.103Z,21.60
2018-06-18T14:58:03.592Z,21.60
2018-06-18T15:00:32.729Z,21.60
2018-06-18T15:03:00.309Z,21.60
2018-06-18T15:05:37.879Z,21.40
2018-06-18T15:08:05.422Z,21.40
2018-06-18T15:10:39.000Z,21.20
2018-06-18T15:13:08.217Z,20.80
2018-06-18T15:18:09.060Z,20.30
2018-06-18T15:20:36.663Z,20.10
2018-06-18T15:23:05.298Z,20.00
2018-06-18T15:25:38.592Z,19.80
2018-06-18T15:28:06.084Z,20.00
2018-06-18T15:30:33.559Z,20.10
2018-06-18T15:33:01.379Z,20.20
2018-06-18T15:35:28.912Z,20.10
2018-06-18T15:37:56.734Z,20.00
2018-06-18T15:40:24.189Z,20.10
2018-06-18T15:42:52.160Z,20.30
2018-06-18T15:45:19.638Z,20.40
2018-06-18T15:47:47.116Z,20.40
2018-06-18T15:50:14.624Z,20.40
2018-06-18T15:52:42.213Z,20.50
2018-06-18T15:55:10.021Z,20.60
2018-06-18T15:57:37.492Z,20.70
2018-06-18T16:00:05.441Z,20.80
2018-06-18T16:02:32.909Z,20.80
2018-06-18T16:05:00.707Z,20.60
2018-06-18T16:07:28.308Z,20.60
2018-06-18T16:09:56.146Z,20.60
2018-06-18T16:12:24.212Z,20.60
2018-06-18T16:14:51.798Z,20.60
2018-06-18T16:17:20.872Z,20.70
2018-06-18T16:19:48.505Z,20.60
2018-06-18T16:22:16.350Z,20.70
2018-06-18T16:24:44.136Z,20.60
2018-06-18T16:27:11.729Z,20.60
2018-06-18T16:29:39.404Z,20.60
2018-06-18T16:32:07.020Z,20.60
2018-06-18T16:34:36.037Z,20.70
2018-06-18T16:37:03.529Z,20.70
2018-06-18T16:39:32.032Z,20.70
2018-06-18T16:42:00.926Z,20.60
2018-06-18T16:44:28.984Z,20.60
2018-06-18T16:46:56.595Z,20.60
2018-06-18T16:49:24.142Z,20.60
2018-06-18T16:51:51.796Z,20.50
2018-06-18T16:54:19.291Z,20.50
2018-06-18T16:56:46.868Z,20.50
2018-06-18T16:59:14.347Z,20.60
2018-06-18T17:01:41.964Z,20.70
2018-06-18T17:04:09.441Z,20.70
2018-06-18T17:06:36.895Z,20.80
2018-06-18T17:09:07.109Z,20.70
2018-06-18T17:11:34.535Z,20.70
2018-06-18T17:14:02.360Z,20.70
2018-06-18T17:16:29.789Z,20.70
2018-06-18T17:18:57.344Z,20.60
2018-06-18T17:21:24.839Z,20.60
2018-06-18T17:23:53.278Z,20.50
2018-06-18T17:26:20.729Z,20.50
2018-06-18T17:28:48.194Z,20.60
2018-06-18T17:31:15.621Z,20.60
2018-06-18T17:33:43.078Z,20.60
2018-06-18T17:36:10.977Z,20.60
2018-06-18T17:38:38.508Z,20.60
2018-06-18T17:41:05.947Z,20.40
2018-06-18T17:43:33.428Z,20.40
2018-06-18T17:46:00.956Z,20.40
2018-06-18T17:48:28.392Z,20.30
2018-06-18T17:50:55.929Z,20.20
2018-06-18T17:53:23.423Z,20.10
2018-06-18T17:55:50.988Z,20.20
2018-06-18T17:58:18.711Z,20.20
2018-06-18T18:00:46.245Z,20.10
2018-06-18T18:03:13.894Z,20.20
2018-06-18T18:05:41.513Z,20.20
2018-06-18T18:08:09.140Z,20.10
2018-06-18T18:10:36.635Z,20.10
2018-06-18T18:13:04.265Z,20.10
2018-06-18T18:15:31.756Z,20.00
2018-06-18T18:18:00.136Z,20.00
2018-06-18T18:20:27.633Z,20.00
2018-06-18T18:22:55.459Z,20.00
2018-06-18T18:25:23.052Z,19.90
2018-06-18T18:27:51.251Z,19.90
2018-06-18T18:30:18.861Z,19.80
2018-06-18T18:32:46.316Z,19.80
2018-06-18T18:35:13.962Z,19.70
2018-06-18T18:37:41.455Z,19.60
2018-06-18T18:40:09.089Z,19.60
2018-06-18T18:42:36.578Z,19.50
2018-06-18T18:45:04.112Z,19.40
2018-06-18T18:47:31.608Z,19.40
2018-06-18T18:49:59.179Z,19.40
2018-06-18T18:52:26.788Z,19.40
2018-06-18T18:55:31.295Z,19.40
2018-06-18T18:58:11.245Z,19.40
2018-06-18T19:00:39.068Z,19.30
2018-06-18T19:03:06.604Z,19.20
2018-06-18T19:05:34.080Z,19.20
2018-06-18T19:08:01.764Z,19.10
2018-06-18T19:10:31.576Z,19.10
2018-06-18T19:13:04.680Z,19.10
2018-06-18T19:15:32.177Z,19.10
2018-06-18T19:17:59.673Z,19.00
2018-06-18T19:20:33.636Z,19.00
2018-06-18T19:23:01.300Z,19.00
2018-06-18T19:25:29.452Z,18.90
2018-06-18T19:27:57.046Z,18.90
2018-06-18T19:30:24.542Z,18.90
2018-06-18T19:32:54.866Z,18.80
2018-06-18T19:35:22.503Z,18.80
2018-06-18T19:37:50.177Z,18.70
2018-06-18T19:40:17.722Z,18.60
2018-06-18T19:42:45.346Z,18.50
2018-06-18T19:45:14.699Z,18.50
2018-06-18T19:47:49.017Z,18.50
2018-06-18T19:50:16.937Z,18.50
2018-06-18T19:52:44.452Z,18.40
2018-06-18T19:55:14.342Z,18.40
2018-06-18T19:57:41.884Z,18.30
2018-06-18T20:00:09.512Z,18.30
2018-06-18T20:02:37.037Z,18.40
2018-06-18T20:05:11.700Z,18.30
2018-06-18T20:07:46.828Z,18.30
2018-06-18T20:10:14.521Z,18.30
2018-06-18T20:12:42.088Z,18.30
2018-06-18T20:15:11.344Z,18.10
2018-06-18T20:17:38.984Z,18.10
2018-06-18T20:20:06.564Z,18.10
2018-06-18T20:22:34.123Z,18.10
2018-06-18T20:25:01.771Z,18.00
2018-06-18T20:27:29.823Z,17.90
2018-06-18T20:29:57.356Z,17.80
2018-06-18T20:32:24.816Z,17.80
2018-06-18T20:34:52.375Z,17.80
2018-06-18T20:37:20.085Z,17.80
2018-06-18T20:39:47.600Z,17.70
2018-06-18T20:42:15.095Z,17.70
2018-06-18T20:44:42.740Z,17.70
2018-06-18T20:47:10.301Z,17.60
2018-06-18T20:49:37.783Z,17.70
2018-06-18T20:52:05.653Z,17.70
2018-06-18T20:54:33.183Z,17.60
2018-06-18T20:57:00.660Z,17.60
2018-06-18T20:59:28.224Z,17.60
2018-06-18T21:01:55.725Z,17.50
2018-06-18T21:04:23.263Z,17.60
2018-06-18T21:06:51.028Z,17.50
2018-06-18T21:09:18.507Z,17.50
2018-06-18T21:11:46.109Z,17.50
2018-06-18T21:14:13.680Z,17.40
2018-06-18T21:16:43.412Z,17.30
2018-06-18T21:19:10.984Z,17.30
2018-06-18T21:21:38.488Z,17.40
2018-06-18T21:24:06.388Z,17.30
2018-06-18T21:26:33.887Z,17.30
2018-06-18T21:29:01.448Z,17.20
2018-06-18T21:31:28.966Z,17.20
2018-06-18T21:33:57.876Z,17.10
2018-06-18T21:36:25.353Z,17.10
2018-06-18T21:38:52.819Z,17.10
2018-06-18T21:41:20.309Z,17.10
2018-06-18T21:43:48.344Z,17.00
2018-06-18T21:46:15.921Z,17.00
2018-06-18T21:48:43.429Z,17.00
2018-06-18T21:51:10.904Z,17.00
2018-06-18T21:53:38.514Z,16.90
2018-06-18T21:56:09.002Z,16.90
2018-06-18T21:58:36.579Z,16.80
2018-06-18T22:01:04.320Z,16.90
2018-06-18T22:03:32.519Z,16.80
2018-06-18T22:06:00.204Z,16.80
2018-06-18T22:08:29.008Z,16.80
2018-06-18T22:10:56.724Z,16.80
2018-06-18T22:13:24.557Z,16.70
2018-06-18T22:15:52.228Z,16.60
2018-06-18T22:18:19.912Z,16.60
2018-06-18T22:20:47.400Z,16.60
2018-06-18T22:23:15.411Z,16.50
2018-06-18T22:25:42.871Z,16.40
2018-06-18T22:28:14.649Z,16.50
2018-06-18T22:30:42.267Z,16.30
2018-06-18T22:33:09.893Z,16.30
2018-06-18T22:35:37.355Z,16.30
2018-06-18T22:38:05.846Z,16.20
2018-06-18T22:40:33.496Z,16.20
2018-06-18T22:43:01.118Z,16.20
2018-06-18T22:45:28.759Z,16.20
2018-06-18T22:47:56.653Z,16.30
2018-06-18T22:50:24.231Z,16.20
2018-06-18T22:52:51.789Z,16.20
2018-06-18T22:55:19.314Z,16.20
2018-06-18T22:57:46.876Z,16.20
2018-06-18T23:00:14.364Z,16.20
2018-06-18T23:02:41.852Z,16.10
2018-06-18T23:05:09.372Z,16.10
2018-06-18T23:07:36.866Z,16.10
2018-06-18T23:10:04.390Z,16.10
2018-06-18T23:12:35.035Z,15.90
2018-06-18T23:15:02.796Z,15.80
2018-06-18T23:17:30.408Z,15.80
2018-06-18T23:19:58.034Z,15.80
2018-06-18T23:22:25.509Z,15.80
2018-06-18T23:24:53.128Z,15.80
2018-06-18T23:27:20.866Z,15.60
2018-06-18T23:29:48.336Z,15.60
2018-06-18T23:32:15.792Z,15.60
2018-06-18T23:34:43.268Z,15.70
2018-06-18T23:37:10.807Z,15.60
2018-06-18T23:39:38.288Z,15.60
2018-06-18T23:42:05.760Z,15.60
2018-06-18T23:44:33.292Z,15.60
2018-06-18T23:47:00.910Z,15.60
2018-06-18T23:49:28.656Z,15.60
2018-06-18T23:51:56.420Z,15.60
2018-06-18T23:54:23.998Z,15.60
2018-06-18T23:56:51.828Z,15.50
2018-06-18T23:59:19.419Z,15.50
